sensor_id;sensor_type;location;lat;lon;timestamp;temperature;humidity
80706;DHT22;70229;48.010;7.852;2024-02-26T00:02:23;9.60;97.50
80706;DHT22;70229;48.010;7.852;2024-02-26T00:04:49;9.50;98.00
80706;DHT22;70229;48.010;7.852;2024-02-26T00:07:16;9.50;99.90
80706;DHT22;70229;48.010;7.852;2024-02-26T00:09:41;10.60;99.90
80706;DHT22;70229;48.010;7.852;2024-02-26T00:12:07;9.90;99.90
80706;DHT22;70229;48.010;7.852;2024-02-26T00:14:32;9.30;99.90
80706;DHT22;70229;48.010;7.852;2024-02-26T00:16:58;9.40;99.90
80706;DHT22;70229;48.010;7.852;2024-02-26T00:19:24;9.40;99.90
80706;DHT22;70229;48.010;7.852;2024-02-26T00:21:49;9.40;99.90
80706;DHT22;70229;48.010;7.852;2024-02-26T00:24:15;9.30;99.90
80706;DHT22;70229;48.010;7.852;2024-02-26T00:26:40;10.60;99.90
80706;DHT22;70229;48.010;7.852;2024-02-26T00:29:06;10.40;99.90
80706;DHT22;70229;48.010;7.852;2024-02-26T00:31:31;9.90;99.90
80706;DHT22;70229;48.010;7.852;2024-02-26T00:33:57;9.80;99.90
80706;DHT22;70229;48.010;7.852;2024-02-26T00:36:23;9.20;99.90
80706;DHT22;70229;48.010;7.852;2024-02-26T00:38:48;9.20;99.90
80706;DHT22;70229;48.010;7.852;2024-02-26T00:41:20;9.20;99.90
80706;DHT22;70229;48.010;7.852;2024-02-26T00:43:46;9.20;99.90
80706;DHT22;70229;48.010;7.852;2024-02-26T00:46:12;9.20;99.90
80706;DHT22;70229;48.010;7.852;2024-02-26T00:48:37;9.20;99.90
80706;DHT22;70229;48.010;7.852;2024-02-26T00:51:03;9.90;99.90
80706;DHT22;70229;48.010;7.852;2024-02-26T00:53:33;9.20;99.90
80706;DHT22;70229;48.010;7.852;2024-02-26T00:55:59;10.20;99.90
80706;DHT22;70229;48.010;7.852;2024-02-26T00:58:25;10.80;99.90
80706;DHT22;70229;48.010;7.852;2024-02-26T01:00:51;9.40;99.90
80706;DHT22;70229;48.010;7.852;2024-02-26T01:03:17;9.30;99.90
80706;DHT22;70229;48.010;7.852;2024-02-26T01:05:43;9.30;99.90
80706;DHT22;70229;48.010;7.852;2024-02-26T01:08:09;9.20;99.90
80706;DHT22;70229;48.010;7.852;2024-02-26T01:10:34;9.30;99.90
80706;DHT22;70229;48.010;7.852;2024-02-26T01:13:00;9.20;99.90
80706;DHT22;70229;48.010;7.852;2024-02-26T01:15:26;9.20;99.90
80706;DHT22;70229;48.010;7.852;2024-02-26T01:17:52;9.20;99.90
80706;DHT22;70229;48.010;7.852;2024-02-26T01:20:18;9.20;99.90
80706;DHT22;70229;48.010;7.852;2024-02-26T01:22:44;9.20;99.90
80706;DHT22;70229;48.010;7.852;2024-02-26T01:25:10;9.20;99.90
80706;DHT22;70229;48.010;7.852;2024-02-26T01:27:36;9.20;99.90
80706;DHT22;70229;48.010;7.852;2024-02-26T01:30:03;9.60;99.90
80706;DHT22;70229;48.010;7.852;2024-02-26T01:32:29;9.20;99.90
80706;DHT22;70229;48.010;7.852;2024-02-26T01:34:55;9.20;99.90
80706;DHT22;70229;48.010;7.852;2024-02-26T01:37:21;9.90;99.90
80706;DHT22;70229;48.010;7.852;2024-02-26T01:39:46;9.20;99.90
80706;DHT22;70229;48.010;7.852;2024-02-26T01:42:12;9.20;99.90
80706;DHT22;70229;48.010;7.852;2024-02-26T01:44:38;9.80;99.90
80706;DHT22;70229;48.010;7.852;2024-02-26T01:47:05;10.80;99.90
80706;DHT22;70229;48.010;7.852;2024-02-26T01:49:32;9.30;99.90
80706;DHT22;70229;48.010;7.852;2024-02-26T01:51:58;9.40;99.90
80706;DHT22;70229;48.010;7.852;2024-02-26T01:54:24;9.60;99.90
80706;DHT22;70229;48.010;7.852;2024-02-26T01:56:50;10.50;99.90
80706;DHT22;70229;48.010;7.852;2024-02-26T01:59:16;10.90;99.90
80706;DHT22;70229;48.010;7.852;2024-02-26T02:01:44;9.60;99.90
80706;DHT22;70229;48.010;7.852;2024-02-26T02:04:13;9.80;99.90
80706;DHT22;70229;48.010;7.852;2024-02-26T02:06:41;10.20;99.90
80706;DHT22;70229;48.010;7.852;2024-02-26T02:09:08;9.50;99.90
80706;DHT22;70229;48.010;7.852;2024-02-26T02:11:34;9.50;99.90
80706;DHT22;70229;48.010;7.852;2024-02-26T02:13:59;11.00;99.90
80706;DHT22;70229;48.010;7.852;2024-02-26T02:16:25;11.10;99.90
80706;DHT22;70229;48.010;7.852;2024-02-26T02:18:51;9.60;99.90
80706;DHT22;70229;48.010;7.852;2024-02-26T02:21:16;9.60;99.90
80706;DHT22;70229;48.010;7.852;2024-02-26T02:23:42;9.70;99.90
80706;DHT22;70229;48.010;7.852;2024-02-26T02:26:13;10.30;99.90
80706;DHT22;70229;48.010;7.852;2024-02-26T02:28:39;9.80;99.90
80706;DHT22;70229;48.010;7.852;2024-02-26T02:31:05;9.70;99.90
80706;DHT22;70229;48.010;7.852;2024-02-26T02:33:32;9.70;99.90
80706;DHT22;70229;48.010;7.852;2024-02-26T02:35:57;11.30;99.90
80706;DHT22;70229;48.010;7.852;2024-02-26T02:38:24;9.80;99.90
80706;DHT22;70229;48.010;7.852;2024-02-26T02:40:54;9.60;99.90
80706;DHT22;70229;48.010;7.852;2024-02-26T02:43:20;9.60;99.90
80706;DHT22;70229;48.010;7.852;2024-02-26T02:45:46;10.50;99.90
80706;DHT22;70229;48.010;7.852;2024-02-26T02:48:11;10.70;99.90
80706;DHT22;70229;48.010;7.852;2024-02-26T02:50:37;10.70;99.90
80706;DHT22;70229;48.010;7.852;2024-02-26T02:53:03;9.40;99.90
80706;DHT22;70229;48.010;7.852;2024-02-26T02:55:29;9.00;99.90
80706;DHT22;70229;48.010;7.852;2024-02-26T02:57:54;9.60;99.90
80706;DHT22;70229;48.010;7.852;2024-02-26T03:00:20;9.60;99.90
80706;DHT22;70229;48.010;7.852;2024-02-26T03:02:48;8.80;99.90
80706;DHT22;70229;48.010;7.852;2024-02-26T03:05:14;8.80;99.90
80706;DHT22;70229;48.010;7.852;2024-02-26T03:07:39;8.90;99.90
80706;DHT22;70229;48.010;7.852;2024-02-26T03:10:05;10.10;99.90
80706;DHT22;70229;48.010;7.852;2024-02-26T03:12:31;8.60;99.90
80706;DHT22;70229;48.010;7.852;2024-02-26T03:14:57;9.30;99.90
80706;DHT22;70229;48.010;7.852;2024-02-26T03:17:23;9.60;99.90
80706;DHT22;70229;48.010;7.852;2024-02-26T03:19:49;8.30;99.90
80706;DHT22;70229;48.010;7.852;2024-02-26T03:22:18;8.30;99.90
80706;DHT22;70229;48.010;7.852;2024-02-26T03:24:44;8.30;99.90
80706;DHT22;70229;48.010;7.852;2024-02-26T03:27:10;8.20;99.90
80706;DHT22;70229;48.010;7.852;2024-02-26T03:29:37;8.10;99.90
80706;DHT22;70229;48.010;7.852;2024-02-26T03:32:03;8.30;99.90
80706;DHT22;70229;48.010;7.852;2024-02-26T03:34:28;8.10;99.90
80706;DHT22;70229;48.010;7.852;2024-02-26T03:36:56;8.20;99.90
80706;DHT22;70229;48.010;7.852;2024-02-26T03:39:21;8.80;99.90
80706;DHT22;70229;48.010;7.852;2024-02-26T03:41:48;9.30;99.90
80706;DHT22;70229;48.010;7.852;2024-02-26T03:44:14;8.00;99.90
80706;DHT22;70229;48.010;7.852;2024-02-26T03:46:40;8.10;99.90
80706;DHT22;70229;48.010;7.852;2024-02-26T03:49:08;8.00;99.90
80706;DHT22;70229;48.010;7.852;2024-02-26T03:51:33;8.00;99.90
80706;DHT22;70229;48.010;7.852;2024-02-26T03:53:59;8.70;99.90
80706;DHT22;70229;48.010;7.852;2024-02-26T03:56:25;8.80;99.90
80706;DHT22;70229;48.010;7.852;2024-02-26T03:58:51;8.10;99.90
80706;DHT22;70229;48.010;7.852;2024-02-26T04:01:17;8.80;99.90
80706;DHT22;70229;48.010;7.852;2024-02-26T04:03:42;8.00;99.90
80706;DHT22;70229;48.010;7.852;2024-02-26T04:06:09;7.90;99.90
80706;DHT22;70229;48.010;7.852;2024-02-26T04:08:36;8.40;99.90
80706;DHT22;70229;48.010;7.852;2024-02-26T04:11:02;7.90;99.90
80706;DHT22;70229;48.010;7.852;2024-02-26T04:13:34;7.80;99.90
80706;DHT22;70229;48.010;7.852;2024-02-26T04:16:00;7.80;99.90
80706;DHT22;70229;48.010;7.852;2024-02-26T04:18:28;7.80;99.90
80706;DHT22;70229;48.010;7.852;2024-02-26T04:20:54;8.20;99.90
80706;DHT22;70229;48.010;7.852;2024-02-26T04:23:19;8.00;99.90
80706;DHT22;70229;48.010;7.852;2024-02-26T04:25:45;8.90;99.90
80706;DHT22;70229;48.010;7.852;2024-02-26T04:28:11;8.70;99.90
80706;DHT22;70229;48.010;7.852;2024-02-26T04:30:37;8.50;99.90
80706;DHT22;70229;48.010;7.852;2024-02-26T04:33:03;7.60;99.90
80706;DHT22;70229;48.010;7.852;2024-02-26T04:35:29;7.70;99.90
80706;DHT22;70229;48.010;7.852;2024-02-26T04:37:55;8.70;99.90
80706;DHT22;70229;48.010;7.852;2024-02-26T04:40:21;8.80;99.90
80706;DHT22;70229;48.010;7.852;2024-02-26T04:42:46;7.70;99.90
80706;DHT22;70229;48.010;7.852;2024-02-26T04:45:12;8.90;99.90
80706;DHT22;70229;48.010;7.852;2024-02-26T04:47:38;7.70;99.90
80706;DHT22;70229;48.010;7.852;2024-02-26T04:50:04;8.40;99.90
80706;DHT22;70229;48.010;7.852;2024-02-26T04:52:29;7.60;99.90
80706;DHT22;70229;48.010;7.852;2024-02-26T04:54:55;7.70;99.90
80706;DHT22;70229;48.010;7.852;2024-02-26T04:57:21;7.60;99.90
80706;DHT22;70229;48.010;7.852;2024-02-26T04:59:47;7.60;99.90
80706;DHT22;70229;48.010;7.852;2024-02-26T05:02:13;7.60;99.90
80706;DHT22;70229;48.010;7.852;2024-02-26T05:04:39;8.30;99.90
80706;DHT22;70229;48.010;7.852;2024-02-26T05:07:05;8.50;99.90
80706;DHT22;70229;48.010;7.852;2024-02-26T05:09:31;8.70;99.90
80706;DHT22;70229;48.010;7.852;2024-02-26T05:11:57;8.10;99.90
80706;DHT22;70229;48.010;7.852;2024-02-26T05:14:22;8.70;99.90
80706;DHT22;70229;48.010;7.852;2024-02-26T05:16:48;8.40;99.90
80706;DHT22;70229;48.010;7.852;2024-02-26T05:19:14;8.70;99.90
80706;DHT22;70229;48.010;7.852;2024-02-26T05:21:39;8.70;99.90
80706;DHT22;70229;48.010;7.852;2024-02-26T05:24:06;7.50;99.90
80706;DHT22;70229;48.010;7.852;2024-02-26T05:26:32;7.40;99.90
80706;DHT22;70229;48.010;7.852;2024-02-26T05:28:57;8.40;99.90
80706;DHT22;70229;48.010;7.852;2024-02-26T05:31:26;8.50;99.90
80706;DHT22;70229;48.010;7.852;2024-02-26T05:33:51;7.50;99.90
80706;DHT22;70229;48.010;7.852;2024-02-26T05:36:18;9.20;99.90
80706;DHT22;70229;48.010;7.852;2024-02-26T05:38:45;7.60;99.90
80706;DHT22;70229;48.010;7.852;2024-02-26T05:41:12;7.70;99.90
80706;DHT22;70229;48.010;7.852;2024-02-26T05:43:37;7.70;99.90
80706;DHT22;70229;48.010;7.852;2024-02-26T05:46:03;9.00;99.90
80706;DHT22;70229;48.010;7.852;2024-02-26T05:48:28;7.80;99.90
80706;DHT22;70229;48.010;7.852;2024-02-26T05:50:54;7.80;99.90
80706;DHT22;70229;48.010;7.852;2024-02-26T05:53:19;7.80;99.90
80706;DHT22;70229;48.010;7.852;2024-02-26T05:55:45;9.30;99.90
80706;DHT22;70229;48.010;7.852;2024-02-26T05:58:11;7.90;99.90
80706;DHT22;70229;48.010;7.852;2024-02-26T06:00:36;8.30;99.90
80706;DHT22;70229;48.010;7.852;2024-02-26T06:03:02;8.10;99.90
80706;DHT22;70229;48.010;7.852;2024-02-26T06:05:28;8.00;99.90
80706;DHT22;70229;48.010;7.852;2024-02-26T06:07:53;9.70;99.90
80706;DHT22;70229;48.010;7.852;2024-02-26T06:10:19;9.10;99.90
80706;DHT22;70229;48.010;7.852;2024-02-26T06:12:46;8.20;99.90
80706;DHT22;70229;48.010;7.852;2024-02-26T06:15:12;8.20;99.90
80706;DHT22;70229;48.010;7.852;2024-02-26T06:17:38;8.10;99.90
80706;DHT22;70229;48.010;7.852;2024-02-26T06:20:04;8.00;99.90
80706;DHT22;70229;48.010;7.852;2024-02-26T06:22:31;7.60;99.90
80706;DHT22;70229;48.010;7.852;2024-02-26T06:24:57;8.40;99.90
80706;DHT22;70229;48.010;7.852;2024-02-26T06:27:23;8.10;99.90
80706;DHT22;70229;48.010;7.852;2024-02-26T06:29:49;8.30;99.90
80706;DHT22;70229;48.010;7.852;2024-02-26T06:32:14;8.30;99.90
80706;DHT22;70229;48.010;7.852;2024-02-26T06:34:40;8.90;99.90
80706;DHT22;70229;48.010;7.852;2024-02-26T06:37:07;8.30;99.90
80706;DHT22;70229;48.010;7.852;2024-02-26T06:39:33;8.30;99.90
80706;DHT22;70229;48.010;7.852;2024-02-26T06:41:58;8.30;99.90
80706;DHT22;70229;48.010;7.852;2024-02-26T06:44:30;8.30;99.90
80706;DHT22;70229;48.010;7.852;2024-02-26T06:46:58;8.30;99.90
80706;DHT22;70229;48.010;7.852;2024-02-26T06:49:25;8.40;99.90
80706;DHT22;70229;48.010;7.852;2024-02-26T06:51:50;8.30;99.90
80706;DHT22;70229;48.010;7.852;2024-02-26T06:54:16;8.30;99.90
80706;DHT22;70229;48.010;7.852;2024-02-26T06:56:42;8.30;99.90
80706;DHT22;70229;48.010;7.852;2024-02-26T06:59:07;8.60;99.90
80706;DHT22;70229;48.010;7.852;2024-02-26T07:01:33;8.30;99.90
80706;DHT22;70229;48.010;7.852;2024-02-26T07:03:58;8.30;99.90
80706;DHT22;70229;48.010;7.852;2024-02-26T07:06:24;8.40;99.90
80706;DHT22;70229;48.010;7.852;2024-02-26T07:08:49;8.40;99.90
80706;DHT22;70229;48.010;7.852;2024-02-26T07:11:16;9.00;99.90
80706;DHT22;70229;48.010;7.852;2024-02-26T07:13:41;8.40;99.90
80706;DHT22;70229;48.010;7.852;2024-02-26T07:16:09;9.00;99.90
80706;DHT22;70229;48.010;7.852;2024-02-26T07:18:35;8.40;99.90
80706;DHT22;70229;48.010;7.852;2024-02-26T07:21:04;9.00;99.90
80706;DHT22;70229;48.010;7.852;2024-02-26T07:23:30;8.40;99.90
80706;DHT22;70229;48.010;7.852;2024-02-26T07:25:55;8.50;99.90
80706;DHT22;70229;48.010;7.852;2024-02-26T07:28:24;8.50;99.90
80706;DHT22;70229;48.010;7.852;2024-02-26T07:30:50;8.50;99.90
80706;DHT22;70229;48.010;7.852;2024-02-26T07:33:15;8.50;99.90
80706;DHT22;70229;48.010;7.852;2024-02-26T07:35:41;8.40;99.90
80706;DHT22;70229;48.010;7.852;2024-02-26T07:38:07;8.40;99.90
80706;DHT22;70229;48.010;7.852;2024-02-26T07:40:32;8.40;99.90
80706;DHT22;70229;48.010;7.852;2024-02-26T07:42:58;8.40;99.90
80706;DHT22;70229;48.010;7.852;2024-02-26T07:45:23;8.40;99.90
80706;DHT22;70229;48.010;7.852;2024-02-26T07:47:49;8.40;99.90
80706;DHT22;70229;48.010;7.852;2024-02-26T07:50:16;8.50;99.90
80706;DHT22;70229;48.010;7.852;2024-02-26T07:52:44;9.30;99.90
80706;DHT22;70229;48.010;7.852;2024-02-26T07:55:10;8.50;99.90
80706;DHT22;70229;48.010;7.852;2024-02-26T07:57:35;8.60;99.90
80706;DHT22;70229;48.010;7.852;2024-02-26T08:00:02;8.70;99.90
80706;DHT22;70229;48.010;7.852;2024-02-26T08:02:28;8.80;99.90
80706;DHT22;70229;48.010;7.852;2024-02-26T08:04:54;8.80;99.90
80706;DHT22;70229;48.010;7.852;2024-02-26T08:07:19;8.80;99.90
80706;DHT22;70229;48.010;7.852;2024-02-26T08:09:46;10.00;99.90
80706;DHT22;70229;48.010;7.852;2024-02-26T08:12:12;8.90;99.90
80706;DHT22;70229;48.010;7.852;2024-02-26T08:14:38;9.00;99.90
80706;DHT22;70229;48.010;7.852;2024-02-26T08:17:03;9.00;99.90
80706;DHT22;70229;48.010;7.852;2024-02-26T08:19:29;9.10;99.90
80706;DHT22;70229;48.010;7.852;2024-02-26T08:21:54;9.10;99.90
80706;DHT22;70229;48.010;7.852;2024-02-26T08:24:20;9.20;99.90
80706;DHT22;70229;48.010;7.852;2024-02-26T08:26:46;9.40;99.90
80706;DHT22;70229;48.010;7.852;2024-02-26T08:29:12;9.30;99.90
80706;DHT22;70229;48.010;7.852;2024-02-26T08:31:37;9.40;99.90
80706;DHT22;70229;48.010;7.852;2024-02-26T08:34:03;9.30;99.90
80706;DHT22;70229;48.010;7.852;2024-02-26T08:36:31;9.40;99.90
80706;DHT22;70229;48.010;7.852;2024-02-26T08:38:57;10.10;99.90
80706;DHT22;70229;48.010;7.852;2024-02-26T08:41:22;9.60;99.90
80706;DHT22;70229;48.010;7.852;2024-02-26T08:43:48;9.70;99.90
80706;DHT22;70229;48.010;7.852;2024-02-26T08:46:13;9.80;99.90
80706;DHT22;70229;48.010;7.852;2024-02-26T08:48:40;10.60;99.90
80706;DHT22;70229;48.010;7.852;2024-02-26T08:51:06;10.00;99.90
80706;DHT22;70229;48.010;7.852;2024-02-26T08:53:32;10.10;99.90
80706;DHT22;70229;48.010;7.852;2024-02-26T08:55:58;10.20;99.90
80706;DHT22;70229;48.010;7.852;2024-02-26T08:58:23;10.40;99.90
80706;DHT22;70229;48.010;7.852;2024-02-26T09:00:49;11.30;99.90
80706;DHT22;70229;48.010;7.852;2024-02-26T09:03:14;10.60;99.90
80706;DHT22;70229;48.010;7.852;2024-02-26T09:05:40;11.10;99.90
80706;DHT22;70229;48.010;7.852;2024-02-26T09:08:06;11.30;99.90
80706;DHT22;70229;48.010;7.852;2024-02-26T09:10:31;10.50;99.90
80706;DHT22;70229;48.010;7.852;2024-02-26T09:12:58;10.60;99.90
80706;DHT22;70229;48.010;7.852;2024-02-26T09:15:23;10.50;99.90
80706;DHT22;70229;48.010;7.852;2024-02-26T09:17:49;10.50;99.90
80706;DHT22;70229;48.010;7.852;2024-02-26T09:20:16;10.60;99.90
80706;DHT22;70229;48.010;7.852;2024-02-26T09:22:45;10.60;99.90
80706;DHT22;70229;48.010;7.852;2024-02-26T09:25:11;10.60;99.90
80706;DHT22;70229;48.010;7.852;2024-02-26T09:27:37;12.10;99.90
80706;DHT22;70229;48.010;7.852;2024-02-26T09:30:02;10.70;99.90
80706;DHT22;70229;48.010;7.852;2024-02-26T09:32:28;10.70;99.90
80706;DHT22;70229;48.010;7.852;2024-02-26T09:34:54;10.70;99.90
80706;DHT22;70229;48.010;7.852;2024-02-26T09:37:19;10.60;99.90
80706;DHT22;70229;48.010;7.852;2024-02-26T09:39:45;10.60;99.90
80706;DHT22;70229;48.010;7.852;2024-02-26T09:42:13;10.70;99.90
80706;DHT22;70229;48.010;7.852;2024-02-26T09:44:40;10.60;99.90
80706;DHT22;70229;48.010;7.852;2024-02-26T09:47:11;10.60;99.90
80706;DHT22;70229;48.010;7.852;2024-02-26T09:49:38;10.70;99.90
80706;DHT22;70229;48.010;7.852;2024-02-26T09:52:08;10.70;99.90
80706;DHT22;70229;48.010;7.852;2024-02-26T09:54:35;11.30;99.90
80706;DHT22;70229;48.010;7.852;2024-02-26T09:57:03;11.40;99.90
80706;DHT22;70229;48.010;7.852;2024-02-26T09:59:29;10.80;99.90
80706;DHT22;70229;48.010;7.852;2024-02-26T10:02:00;10.80;99.90
80706;DHT22;70229;48.010;7.852;2024-02-26T10:04:26;11.90;99.90
80706;DHT22;70229;48.010;7.852;2024-02-26T10:06:52;10.80;99.90
80706;DHT22;70229;48.010;7.852;2024-02-26T10:09:19;10.80;99.90
80706;DHT22;70229;48.010;7.852;2024-02-26T10:11:46;10.90;99.90
80706;DHT22;70229;48.010;7.852;2024-02-26T10:14:14;10.90;99.90
80706;DHT22;70229;48.010;7.852;2024-02-26T10:16:41;10.90;99.90
80706;DHT22;70229;48.010;7.852;2024-02-26T10:19:07;10.70;99.90
80706;DHT22;70229;48.010;7.852;2024-02-26T10:21:32;11.00;99.90
80706;DHT22;70229;48.010;7.852;2024-02-26T10:23:58;11.00;99.90
80706;DHT22;70229;48.010;7.852;2024-02-26T10:26:23;10.90;99.90
80706;DHT22;70229;48.010;7.852;2024-02-26T10:28:49;12.10;99.90
80706;DHT22;70229;48.010;7.852;2024-02-26T10:31:18;11.10;99.90
80706;DHT22;70229;48.010;7.852;2024-02-26T10:33:43;11.30;99.90
80706;DHT22;70229;48.010;7.852;2024-02-26T10:36:10;11.40;99.90
80706;DHT22;70229;48.010;7.852;2024-02-26T10:38:36;11.40;99.90
80706;DHT22;70229;48.010;7.852;2024-02-26T10:41:13;11.10;99.90
80706;DHT22;70229;48.010;7.852;2024-02-26T10:43:40;12.60;99.90
80706;DHT22;70229;48.010;7.852;2024-02-26T10:46:07;11.90;99.90
80706;DHT22;70229;48.010;7.852;2024-02-26T10:48:33;12.10;99.90
80706;DHT22;70229;48.010;7.852;2024-02-26T10:50:58;12.10;99.90
80706;DHT22;70229;48.010;7.852;2024-02-26T10:53:29;12.10;99.90
80706;DHT22;70229;48.010;7.852;2024-02-26T10:55:57;12.10;99.90
80706;DHT22;70229;48.010;7.852;2024-02-26T10:58:24;12.10;99.90
80706;DHT22;70229;48.010;7.852;2024-02-26T11:00:51;12.10;99.90
80706;DHT22;70229;48.010;7.852;2024-02-26T11:03:18;12.50;99.90
80706;DHT22;70229;48.010;7.852;2024-02-26T11:05:47;12.20;99.90
80706;DHT22;70229;48.010;7.852;2024-02-26T11:08:14;12.30;99.90
80706;DHT22;70229;48.010;7.852;2024-02-26T11:10:41;12.50;99.90
80706;DHT22;70229;48.010;7.852;2024-02-26T11:13:09;12.50;99.90
80706;DHT22;70229;48.010;7.852;2024-02-26T11:15:36;12.70;99.90
80706;DHT22;70229;48.010;7.852;2024-02-26T11:18:02;12.90;99.90
80706;DHT22;70229;48.010;7.852;2024-02-26T11:20:28;13.10;99.90
80706;DHT22;70229;48.010;7.852;2024-02-26T11:22:55;13.40;99.90
80706;DHT22;70229;48.010;7.852;2024-02-26T11:25:21;13.80;99.90
80706;DHT22;70229;48.010;7.852;2024-02-26T11:27:54;13.90;99.90
80706;DHT22;70229;48.010;7.852;2024-02-26T11:30:23;13.80;99.90
80706;DHT22;70229;48.010;7.852;2024-02-26T11:32:50;14.10;99.90
80706;DHT22;70229;48.010;7.852;2024-02-26T11:35:17;15.00;99.90
80706;DHT22;70229;48.010;7.852;2024-02-26T11:38:12;13.90;99.90
80706;DHT22;70229;48.010;7.852;2024-02-26T11:40:43;14.20;99.90
80706;DHT22;70229;48.010;7.852;2024-02-26T11:43:10;13.80;99.90
80706;DHT22;70229;48.010;7.852;2024-02-26T11:48:04;13.70;99.90
80706;DHT22;70229;48.010;7.852;2024-02-26T11:50:39;13.70;99.90
80706;DHT22;70229;48.010;7.852;2024-02-26T11:53:25;13.70;99.90
80706;DHT22;70229;48.010;7.852;2024-02-26T11:56:19;13.90;99.90
80706;DHT22;70229;48.010;7.852;2024-02-26T11:58:45;13.90;99.90
80706;DHT22;70229;48.010;7.852;2024-02-26T12:01:48;14.00;99.90
80706;DHT22;70229;48.010;7.852;2024-02-26T12:04:24;13.80;99.90
80706;DHT22;70229;48.010;7.852;2024-02-26T12:06:54;13.60;99.90
80706;DHT22;70229;48.010;7.852;2024-02-26T12:09:46;13.60;99.90
80706;DHT22;70229;48.010;7.852;2024-02-26T12:12:17;13.70;99.90
80706;DHT22;70229;48.010;7.852;2024-02-26T12:14:55;14.00;99.90
80706;DHT22;70229;48.010;7.852;2024-02-26T12:17:23;14.10;99.90
80706;DHT22;70229;48.010;7.852;2024-02-26T12:19:49;13.80;99.90
80706;DHT22;70229;48.010;7.852;2024-02-26T12:22:16;13.80;99.90
80706;DHT22;70229;48.010;7.852;2024-02-26T12:24:45;14.40;99.90
80706;DHT22;70229;48.010;7.852;2024-02-26T12:27:11;14.40;99.90
80706;DHT22;70229;48.010;7.852;2024-02-26T12:29:36;14.20;99.90
80706;DHT22;70229;48.010;7.852;2024-02-26T12:32:04;14.20;99.90
80706;DHT22;70229;48.010;7.852;2024-02-26T12:34:31;14.20;99.90
80706;DHT22;70229;48.010;7.852;2024-02-26T12:36:57;14.10;99.90
80706;DHT22;70229;48.010;7.852;2024-02-26T12:39:23;14.20;99.90
80706;DHT22;70229;48.010;7.852;2024-02-26T12:41:48;14.10;99.90
80706;DHT22;70229;48.010;7.852;2024-02-26T12:44:15;13.90;99.90
80706;DHT22;70229;48.010;7.852;2024-02-26T12:46:41;13.70;99.90
80706;DHT22;70229;48.010;7.852;2024-02-26T12:49:07;13.60;99.90
80706;DHT22;70229;48.010;7.852;2024-02-26T12:51:33;13.80;99.90
80706;DHT22;70229;48.010;7.852;2024-02-26T12:53:59;14.50;99.90
80706;DHT22;70229;48.010;7.852;2024-02-26T12:56:26;14.90;99.90
80706;DHT22;70229;48.010;7.852;2024-02-26T12:58:53;14.50;99.90
80706;DHT22;70229;48.010;7.852;2024-02-26T13:01:22;14.50;99.90
80706;DHT22;70229;48.010;7.852;2024-02-26T13:03:49;14.80;99.90
80706;DHT22;70229;48.010;7.852;2024-02-26T13:06:15;15.60;99.90
80706;DHT22;70229;48.010;7.852;2024-02-26T13:08:40;16.00;99.90
80706;DHT22;70229;48.010;7.852;2024-02-26T13:11:07;16.00;99.90
80706;DHT22;70229;48.010;7.852;2024-02-26T13:13:32;16.30;99.90
80706;DHT22;70229;48.010;7.852;2024-02-26T13:16:05;16.00;99.90
80706;DHT22;70229;48.010;7.852;2024-02-26T13:18:33;16.10;99.90
80706;DHT22;70229;48.010;7.852;2024-02-26T13:21:12;16.90;99.90
80706;DHT22;70229;48.010;7.852;2024-02-26T13:23:39;16.30;99.90
80706;DHT22;70229;48.010;7.852;2024-02-26T13:26:05;16.70;99.90
80706;DHT22;70229;48.010;7.852;2024-02-26T13:28:31;16.90;99.90
80706;DHT22;70229;48.010;7.852;2024-02-26T13:30:58;16.60;99.90
80706;DHT22;70229;48.010;7.852;2024-02-26T13:33:25;17.10;99.90
80706;DHT22;70229;48.010;7.852;2024-02-26T13:35:52;16.30;99.90
80706;DHT22;70229;48.010;7.852;2024-02-26T13:38:18;17.00;99.90
80706;DHT22;70229;48.010;7.852;2024-02-26T13:40:43;15.90;99.90
80706;DHT22;70229;48.010;7.852;2024-02-26T13:43:09;17.10;99.90
80706;DHT22;70229;48.010;7.852;2024-02-26T13:45:36;16.00;99.90
80706;DHT22;70229;48.010;7.852;2024-02-26T13:48:07;16.20;99.90
80706;DHT22;70229;48.010;7.852;2024-02-26T13:50:35;15.80;99.90
80706;DHT22;70229;48.010;7.852;2024-02-26T13:53:01;16.00;99.90
80706;DHT22;70229;48.010;7.852;2024-02-26T13:55:26;15.70;99.90
80706;DHT22;70229;48.010;7.852;2024-02-26T13:57:54;15.40;99.90
80706;DHT22;70229;48.010;7.852;2024-02-26T14:00:20;15.70;99.90
80706;DHT22;70229;48.010;7.852;2024-02-26T14:02:46;15.20;99.90
80706;DHT22;70229;48.010;7.852;2024-02-26T14:05:12;15.20;99.90
80706;DHT22;70229;48.010;7.852;2024-02-26T14:07:37;15.20;99.90
80706;DHT22;70229;48.010;7.852;2024-02-26T14:10:03;15.20;99.90
80706;DHT22;70229;48.010;7.852;2024-02-26T14:12:29;15.10;99.90
80706;DHT22;70229;48.010;7.852;2024-02-26T14:14:55;15.70;99.90
80706;DHT22;70229;48.010;7.852;2024-02-26T14:17:21;15.30;99.90
80706;DHT22;70229;48.010;7.852;2024-02-26T14:19:48;15.30;99.90
80706;DHT22;70229;48.010;7.852;2024-02-26T14:22:14;14.80;99.90
80706;DHT22;70229;48.010;7.852;2024-02-26T14:24:41;14.70;99.90
80706;DHT22;70229;48.010;7.852;2024-02-26T14:27:08;15.80;99.90
80706;DHT22;70229;48.010;7.852;2024-02-26T14:29:35;15.60;99.90
80706;DHT22;70229;48.010;7.852;2024-02-26T14:32:00;14.60;99.90
80706;DHT22;70229;48.010;7.852;2024-02-26T14:34:26;14.60;99.90
80706;DHT22;70229;48.010;7.852;2024-02-26T14:36:52;14.60;99.90
80706;DHT22;70229;48.010;7.852;2024-02-26T14:39:18;15.10;99.90
80706;DHT22;70229;48.010;7.852;2024-02-26T14:41:43;14.50;99.90
80706;DHT22;70229;48.010;7.852;2024-02-26T14:44:09;15.00;99.90
80706;DHT22;70229;48.010;7.852;2024-02-26T14:46:36;15.60;99.90
80706;DHT22;70229;48.010;7.852;2024-02-26T14:49:01;15.20;99.90
80706;DHT22;70229;48.010;7.852;2024-02-26T14:51:27;14.30;99.90
80706;DHT22;70229;48.010;7.852;2024-02-26T14:53:53;15.10;99.90
80706;DHT22;70229;48.010;7.852;2024-02-26T14:56:19;14.90;99.90
80706;DHT22;70229;48.010;7.852;2024-02-26T14:58:44;15.60;99.90
80706;DHT22;70229;48.010;7.852;2024-02-26T15:01:11;14.20;99.90
80706;DHT22;70229;48.010;7.852;2024-02-26T15:03:37;14.30;99.90
80706;DHT22;70229;48.010;7.852;2024-02-26T15:06:03;14.20;99.90
80706;DHT22;70229;48.010;7.852;2024-02-26T15:08:28;14.20;99.90
80706;DHT22;70229;48.010;7.852;2024-02-26T15:10:54;14.50;99.90
80706;DHT22;70229;48.010;7.852;2024-02-26T15:13:20;14.20;99.90
80706;DHT22;70229;48.010;7.852;2024-02-26T15:15:45;14.20;99.90
80706;DHT22;70229;48.010;7.852;2024-02-26T15:18:11;14.70;99.90
80706;DHT22;70229;48.010;7.852;2024-02-26T15:20:41;14.60;99.90
80706;DHT22;70229;48.010;7.852;2024-02-26T15:23:07;14.30;99.90
80706;DHT22;70229;48.010;7.852;2024-02-26T15:25:33;14.80;99.90
80706;DHT22;70229;48.010;7.852;2024-02-26T15:27:58;14.30;99.90
80706;DHT22;70229;48.010;7.852;2024-02-26T15:30:24;14.70;99.90
80706;DHT22;70229;48.010;7.852;2024-02-26T15:32:49;14.30;99.90
80706;DHT22;70229;48.010;7.852;2024-02-26T15:35:15;14.20;99.90
80706;DHT22;70229;48.010;7.852;2024-02-26T15:37:40;15.10;99.90